Time;durP1;ratioP1;P1;durP2;ratioP2;P2;SDS_P1;SDS_P2;PMS_P1;PMS_P2;Temp;Humidity;BMP_temperature;BMP_pressure;BME280_temperature;BME280_humidity;BME280_pressure;Samples;Min_cycle;Max_cycle;Signal;HPM_P1;HPM_P2
2022/11/04 00:01:05;;;;;;;;;;;;;;;5.00;67.33;94229.22;4944445;28;20366;-75
2022/11/04 00:03:30;;;;;;;;;;;;;;;5.34;67.34;94230.63;4943530;28;20026;-75
2022/11/04 00:05:59;;;;;;;;;;;;;;;5.11;67.26;94228.81;4954058;28;20447;-75
2022/11/04 00:08:24;;;;;;;;;;;;;;;5.41;66.42;94231.50;4945659;28;20054;-75
2022/11/04 00:13:39;;;;;;;;;;;;;;;4.79;68.20;94234.13;4943612;28;20499;-75
2022/11/04 00:18:49;;;;;;;;;;;;;;;2.53;74.85;94271.66;4941292;28;20009;-75
2022/11/04 00:29:25;;;;;;;;;;;;;;;2.18;76.10;94316.34;4947145;28;20398;-74
2022/11/04 00:34:34;;;;;;;;;;;;;;;2.68;73.48;94315.72;4944544;28;20648;-74
2022/11/04 00:37:01;;;;;;;;;;;;;;;2.44;74.14;94315.47;4944616;29;19998;-73
2022/11/04 00:39:27;;;;;;;;;;;;;;;3.02;72.11;94296.34;4944286;28;20199;-74
2022/11/04 00:41:52;;;;;;;;;;;;;;;3.33;68.45;94311.50;4944409;28;19971;-75
2022/11/04 00:44:17;;;;;;;;;;;;;;;2.89;71.72;94302.91;4944097;29;20356;-74
2022/11/04 00:46:42;;;;;;;;;;;;;;;3.37;69.45;94312.81;4944449;28;19990;-75
2022/11/04 00:49:08;;;;;;;;;;;;;;;3.36;68.96;94305.91;4944151;29;20006;-75
2022/11/04 00:51:33;;;;;;;;;;;;;;;3.50;68.33;94314.97;4943462;28;20301;-75
2022/11/04 00:53:58;;;;;;;;;;;;;;;3.82;68.29;94312.47;4944603;28;20487;-75
2022/11/04 00:56:23;;;;;;;;;;;;;;;3.73;68.56;94310.81;4944470;29;20339;-75
2022/11/04 00:58:49;;;;;;;;;;;;;;;3.74;67.53;94312.50;4944930;28;20199;-75
2022/11/04 01:01:17;;;;;;;;;;;;;;;3.24;69.39;94321.22;4943781;29;19979;-75
2022/11/04 01:03:46;;;;;;;;;;;;;;;3.47;68.33;94317.13;4946572;28;20021;-75
2022/11/04 01:06:11;;;;;;;;;;;;;;;3.71;67.84;94316.25;4931972;28;20041;-75
2022/11/04 01:08:36;;;;;;;;;;;;;;;3.91;67.52;94324.63;4944327;29;20423;-75
2022/11/04 01:11:02;;;;;;;;;;;;;;;3.60;68.44;94314.81;4945725;28;20006;-75
2022/11/04 01:13:27;;;;;;;;;;;;;;;4.22;65.96;94312.50;4944279;28;20398;-75
2022/11/04 01:15:53;;;;;;;;;;;;;;;3.60;67.86;94314.81;4943883;28;19990;-75
2022/11/04 01:18:18;;;;;;;;;;;;;;;3.62;67.57;94318.09;4943539;28;20002;-75
2022/11/04 01:20:43;;;;;;;;;;;;;;;3.66;66.51;94315.94;4951106;28;20424;-75
2022/11/04 01:23:08;;;;;;;;;;;;;;;3.57;67.17;94325.66;4943736;28;20093;-75
2022/11/04 01:25:34;;;;;;;;;;;;;;;4.15;65.92;94317.66;4943030;28;19963;-75
2022/11/04 01:27:59;;;;;;;;;;;;;;;4.78;64.07;94313.41;4946959;28;20005;-75
2022/11/04 01:30:24;;;;;;;;;;;;;;;4.97;62.53;94322.72;4943277;28;20044;-75
2022/11/04 01:32:50;;;;;;;;;;;;;;;5.01;62.21;94337.19;4943825;29;20460;-76
2022/11/04 01:35:15;;;;;;;;;;;;;;;5.12;61.91;94333.34;4946671;28;20367;-75
2022/11/04 01:37:40;;;;;;;;;;;;;;;5.03;61.64;94326.47;4930132;29;19995;-75
2022/11/04 01:40:05;;;;;;;;;;;;;;;4.87;61.80;94324.75;4943222;28;20086;-75
2022/11/04 01:42:31;;;;;;;;;;;;;;;4.38;63.45;94348.53;4946151;28;19982;-75
2022/11/04 01:44:57;;;;;;;;;;;;;;;4.30;63.61;94338.84;4943638;29;19971;-75
2022/11/04 01:47:22;;;;;;;;;;;;;;;3.38;66.36;94346.03;4945792;28;20002;-75
2022/11/04 01:49:51;;;;;;;;;;;;;;;3.50;66.00;94343.91;4943734;29;19971;-75
2022/11/04 01:52:27;;;;;;;;;;;;;;;2.84;68.26;94356.97;4931950;28;20002;-75
2022/11/04 01:54:53;;;;;;;;;;;;;;;2.82;68.70;94343.19;4946523;28;20502;-75
2022/11/04 01:57:19;;;;;;;;;;;;;;;2.71;69.34;94352.16;4932299;29;20034;-75
2022/11/04 01:59:44;;;;;;;;;;;;;;;2.83;67.84;94345.66;4947217;28;20033;-75
2022/11/04 02:02:09;;;;;;;;;;;;;;;3.61;65.42;94342.75;4943606;28;20026;-75
2022/11/04 02:04:35;;;;;;;;;;;;;;;3.94;64.18;94337.47;4941297;29;19971;-75
2022/11/04 02:07:01;;;;;;;;;;;;;;;3.28;66.46;94340.13;4926478;28;20005;-75
2022/11/04 02:09:27;;;;;;;;;;;;;;;3.86;64.13;94341.91;4934142;29;20554;-75
2022/11/04 02:14:36;;;;;;;;;;;;;;;3.75;65.13;94343.09;4942659;28;20074;-75
2022/11/04 02:17:10;;;;;;;;;;;;;;;4.01;63.96;94337.59;4931678;29;20085;-76
2022/11/04 02:19:38;;;;;;;;;;;;;;;3.88;64.85;94332.84;4951501;28;19991;-75
2022/11/04 02:22:14;;;;;;;;;;;;;;;3.49;66.13;94328.28;4941646;28;20057;-76
2022/11/04 02:24:40;;;;;;;;;;;;;;;3.28;67.04;94326.97;4937211;29;20002;-75
2022/11/04 02:27:11;;;;;;;;;;;;;;;3.55;66.28;94325.81;4942361;28;20750;-71
2022/11/04 02:29:55;;;;;;;;;;;;;;;3.51;65.95;94332.41;4943506;29;20378;-75
2022/11/04 02:32:24;;;;;;;;;;;;;;;4.13;64.04;94327.53;4927866;29;19998;-75
2022/11/04 02:35:09;;;;;;;;;;;;;;;3.63;65.78;94326.81;4941929;28;20112;-75
2022/11/04 02:37:40;;;;;;;;;;;;;;;3.87;65.08;94328.59;4942243;28;19991;-75
2022/11/04 02:40:06;;;;;;;;;;;;;;;4.17;65.38;94323.56;4941780;28;20458;-75
2022/11/04 02:42:31;;;;;;;;;;;;;;;3.66;66.90;94323.84;4942638;28;20127;-75
2022/11/04 02:45:22;;;;;;;;;;;;;;;3.28;67.73;94338.31;4942457;29;19971;-76
2022/11/04 02:47:49;;;;;;;;;;;;;;;3.41;66.72;94329.91;4942011;28;20403;-75
2022/11/04 02:50:17;;;;;;;;;;;;;;;3.49;64.63;94315.13;4952496;28;20395;-76
2022/11/04 02:52:48;;;;;;;;;;;;;;;3.28;64.68;94324.31;4942229;28;20506;-75
2022/11/04 02:55:31;;;;;;;;;;;;;;;2.73;66.69;94337.06;4948890;28;20093;-75
2022/11/04 02:57:57;;;;;;;;;;;;;;;2.84;65.22;94347.28;4930370;28;19993;-75
2022/11/04 03:00:22;;;;;;;;;;;;;;;2.50;66.54;94341.13;4933855;29;19979;-75
2022/11/04 03:02:51;;;;;;;;;;;;;;;2.53;66.90;94353.09;4941244;28;20455;-75
2022/11/04 03:05:17;;;;;;;;;;;;;;;2.38;65.63;94348.44;4963984;28;19982;-75
2022/11/04 03:07:42;;;;;;;;;;;;;;;2.75;63.86;94340.34;4947640;28;19990;-75
2022/11/04 03:10:19;;;;;;;;;;;;;;;2.63;64.21;94361.66;4950030;28;20317;-75
2022/11/04 03:12:46;;;;;;;;;;;;;;;3.06;62.44;94345.00;4940828;29;20446;-75
2022/11/04 03:15:13;;;;;;;;;;;;;;;3.03;62.39;94348.78;4932884;28;20466;-75
2022/11/04 03:17:45;;;;;;;;;;;;;;;3.47;61.20;94343.44;4947730;28;19997;-75
2022/11/04 03:20:20;;;;;;;;;;;;;;;3.58;60.35;94351.00;4947853;28;20018;-75
2022/11/04 03:22:45;;;;;;;;;;;;;;;4.06;59.24;94355.53;4929523;28;20372;-76
2022/11/04 03:25:11;;;;;;;;;;;;;;;3.89;59.63;94354.75;4942837;28;19989;-76
2022/11/04 03:27:36;;;;;;;;;;;;;;;3.61;60.52;94357.75;4925467;28;20456;-75
2022/11/04 03:30:21;;;;;;;;;;;;;;;4.49;58.32;94359.69;4941225;28;21092;-76
2022/11/04 03:32:49;;;;;;;;;;;;;;;4.71;57.67;94369.50;4940019;28;20073;-76
2022/11/04 03:35:15;;;;;;;;;;;;;;;4.63;57.85;94361.59;4940148;28;20001;-76
2022/11/04 03:37:40;;;;;;;;;;;;;;;5.08;58.48;94364.56;4943556;28;20082;-76
2022/11/04 03:40:06;;;;;;;;;;;;;;;5.09;59.00;94378.56;4930633;28;20029;-76
2022/11/04 03:42:31;;;;;;;;;;;;;;;5.22;56.55;94378.81;4941633;28;19987;-76
2022/11/04 03:44:56;;;;;;;;;;;;;;;5.34;55.40;94381.06;4929413;29;19970;-76
2022/11/04 03:47:23;;;;;;;;;;;;;;;4.99;55.42;94385.84;4928631;28;20045;-76
2022/11/04 03:49:48;;;;;;;;;;;;;;;5.22;55.89;94375.34;4968776;28;20002;-76
2022/11/04 03:52:13;;;;;;;;;;;;;;;5.36;56.89;94373.75;4951530;28;20026;-76
2022/11/04 03:54:39;;;;;;;;;;;;;;;5.42;56.85;94369.59;4949170;28;20026;-76
2022/11/04 03:57:26;;;;;;;;;;;;;;;5.46;57.35;94370.88;4930790;29;20444;-76
2022/11/04 04:00:08;;;;;;;;;;;;;;;5.65;56.57;94374.88;4948618;28;19995;-76
2022/11/04 04:02:45;;;;;;;;;;;;;;;5.56;54.76;94381.22;4944746;28;20061;-76
2022/11/04 04:05:21;;;;;;;;;;;;;;;5.32;56.75;94388.31;4932830;29;19990;-76
2022/11/04 04:07:55;;;;;;;;;;;;;;;5.54;57.24;94381.38;4930857;29;19990;-76
2022/11/04 04:10:40;;;;;;;;;;;;;;;5.55;54.95;94387.50;4943705;28;20607;-76
2022/11/04 04:13:26;;;;;;;;;;;;;;;5.54;55.84;94396.44;4929060;29;19978;-76
2022/11/04 04:16:18;;;;;;;;;;;;;;;5.51;56.86;94404.69;4930892;29;20001;-76
2022/11/04 04:18:47;;;;;;;;;;;;;;;5.33;54.81;94403.16;4941344;28;19994;-76
2022/11/04 04:21:13;;;;;;;;;;;;;;;5.41;55.97;94402.28;4948622;28;19970;-76
2022/11/04 04:29:06;;;;;;;;;;;;;;;5.48;55.68;94411.16;4934219;29;19973;-76
2022/11/04 04:34:29;;;;;;;;;;;;;;;5.59;56.52;94413.38;4916391;28;20089;-76
2022/11/04 04:37:33;;;;;;;;;;;;;;;5.48;56.05;94414.59;4937132;29;20073;-75
2022/11/04 04:44:58;;;;;;;;;;;;;;;5.29;55.28;94429.06;4861943;29;20415;-76
2022/11/04 04:45:42;;;;;;;;;;;;;;;5.14;53.39;94426.34;4925247;29;19975;-75
2022/11/04 04:48:08;;;;;;;;;;;;;;;5.21;56.64;94432.56;4932542;28;20046;-75
2022/11/04 04:50:34;;;;;;;;;;;;;;;5.02;54.29;94431.16;4954343;28;19998;-76
2022/11/04 04:53:00;;;;;;;;;;;;;;;5.05;55.38;94435.28;4944262;29;19981;-76
2022/11/04 04:55:25;;;;;;;;;;;;;;;5.14;55.34;94434.25;4948027;28;19991;-76
2022/11/04 04:57:50;;;;;;;;;;;;;;;5.36;55.96;94439.75;4944794;28;19994;-76
2022/11/04 05:00:16;;;;;;;;;;;;;;;5.48;54.10;94437.56;4942691;28;20089;-76
2022/11/04 05:02:41;;;;;;;;;;;;;;;5.64;54.88;94427.88;4927670;28;19995;-76
2022/11/04 05:05:07;;;;;;;;;;;;;;;5.70;53.33;94420.06;4943604;29;20065;-76
2022/11/04 05:07:32;;;;;;;;;;;;;;;5.96;57.59;94405.63;4950183;28;19995;-76
2022/11/04 05:09:57;;;;;;;;;;;;;;;6.07;55.64;94396.47;4943695;28;20478;-76
2022/11/04 05:12:23;;;;;;;;;;;;;;;6.21;53.21;94400.13;4944944;28;20045;-76
2022/11/04 05:14:48;;;;;;;;;;;;;;;6.36;56.21;94401.97;4944052;28;20029;-76
2022/11/04 05:17:13;;;;;;;;;;;;;;;5.94;54.31;94394.44;4943383;29;19999;-76
2022/11/04 05:19:38;;;;;;;;;;;;;;;5.30;54.69;94393.75;4943748;28;19991;-76
2022/11/04 05:22:04;;;;;;;;;;;;;;;5.85;57.46;94396.31;4943774;28;20405;-77
2022/11/04 05:24:29;;;;;;;;;;;;;;;6.35;53.73;94395.03;4944157;29;19974;-76
2022/11/04 05:26:54;;;;;;;;;;;;;;;5.93;53.51;94395.44;4942561;28;20520;-76
2022/11/04 05:29:19;;;;;;;;;;;;;;;6.03;55.99;94404.94;4938505;28;19971;-76
2022/11/04 05:31:45;;;;;;;;;;;;;;;6.01;57.06;94404.31;4947319;28;19998;-76
2022/11/04 05:34:10;;;;;;;;;;;;;;;6.41;56.91;94404.06;4933607;28;20254;-76
2022/11/04 05:36:36;;;;;;;;;;;;;;;6.66;54.37;94402.00;4943478;28;20345;-76
2022/11/04 05:39:01;;;;;;;;;;;;;;;6.71;55.63;94414.69;4943366;28;19994;-76
2022/11/04 05:41:26;;;;;;;;;;;;;;;6.88;57.21;94417.97;4937530;28;20399;-76
2022/11/04 05:43:55;;;;;;;;;;;;;;;6.91;53.73;94411.47;4934729;28;19995;-76
2022/11/04 05:46:21;;;;;;;;;;;;;;;7.00;53.55;94405.06;4938516;28;19998;-76
2022/11/04 05:48:46;;;;;;;;;;;;;;;7.08;55.31;94417.38;4935249;28;20046;-76
2022/11/04 05:51:12;;;;;;;;;;;;;;;7.13;52.75;94426.41;4942352;28;20001;-76
2022/11/04 05:53:38;;;;;;;;;;;;;;;7.22;55.74;94416.53;4932691;29;20364;-76
2022/11/04 05:56:03;;;;;;;;;;;;;;;6.17;52.71;94419.16;4943088;28;19987;-76
2022/11/04 05:58:28;;;;;;;;;;;;;;;6.67;56.97;94430.09;4942400;28;20003;-76
2022/11/04 06:00:54;;;;;;;;;;;;;;;6.93;55.15;94439.38;4932015;29;21894;-76
2022/11/04 06:03:19;;;;;;;;;;;;;;;7.08;56.43;94434.09;4941595;28;20014;-76
2022/11/04 06:05:44;;;;;;;;;;;;;;;7.32;54.27;94434.78;4941613;28;19982;-76
2022/11/04 06:08:09;;;;;;;;;;;;;;;6.95;51.33;94442.69;4943250;28;20050;-76
2022/11/04 06:10:34;;;;;;;;;;;;;;;6.93;54.39;94444.69;4946929;28;20246;-76
2022/11/04 06:13:00;;;;;;;;;;;;;;;7.09;55.26;94433.06;4942725;28;19982;-76
2022/11/04 06:15:25;;;;;;;;;;;;;;;6.97;52.26;94439.84;4942184;28;20093;-76
2022/11/04 06:17:50;;;;;;;;;;;;;;;6.96;53.39;94444.31;4942674;28;20621;-76
2022/11/04 06:20:15;;;;;;;;;;;;;;;6.91;54.44;94449.34;4929122;28;20308;-76
2022/11/04 06:22:41;;;;;;;;;;;;;;;6.81;53.84;94460.22;4942264;28;20085;-76
2022/11/04 06:25:06;;;;;;;;;;;;;;;6.85;53.75;94453.53;4942541;28;19978;-76
2022/11/04 06:27:31;;;;;;;;;;;;;;;6.57;54.27;94453.34;4943314;28;19989;-76
2022/11/04 06:29:57;;;;;;;;;;;;;;;6.63;54.97;94442.03;4940865;28;20109;-76
2022/11/04 06:32:22;;;;;;;;;;;;;;;6.84;54.92;94443.16;4941572;28;20093;-76
2022/11/04 06:34:47;;;;;;;;;;;;;;;6.75;53.55;94447.69;4941887;28;20586;-76
2022/11/04 06:37:12;;;;;;;;;;;;;;;6.71;54.13;94447.25;4942434;28;19995;-76
2022/11/04 06:39:38;;;;;;;;;;;;;;;6.72;53.75;94440.94;4941471;28;20026;-76
2022/11/04 06:42:03;;;;;;;;;;;;;;;6.63;53.19;94434.09;4942144;28;19975;-76
2022/11/04 06:44:28;;;;;;;;;;;;;;;6.73;53.13;94450.53;4927090;29;20033;-76
2022/11/04 06:46:54;;;;;;;;;;;;;;;6.85;54.05;94442.13;4942325;28;20030;-76
2022/11/04 06:49:19;;;;;;;;;;;;;;;6.91;53.34;94453.81;4942410;29;20021;-76
2022/11/04 06:51:45;;;;;;;;;;;;;;;6.95;51.50;94458.56;4930488;29;19995;-77
2022/11/04 06:54:10;;;;;;;;;;;;;;;7.01;51.36;94460.44;4942651;28;20445;-76
2022/11/04 06:56:36;;;;;;;;;;;;;;;7.02;52.82;94462.13;4926884;29;19967;-76
2022/11/04 06:59:01;;;;;;;;;;;;;;;6.85;51.71;94463.28;4945373;28;19999;-76
2022/11/04 07:01:27;;;;;;;;;;;;;;;6.76;52.94;94468.69;4942544;29;20065;-76
2022/11/04 07:03:53;;;;;;;;;;;;;;;7.05;52.22;94475.97;4941656;28;20363;-76
2022/11/04 07:06:18;;;;;;;;;;;;;;;7.08;51.94;94478.25;4929802;28;20070;-76
2022/11/04 07:08:44;;;;;;;;;;;;;;;7.17;52.39;94466.53;4948453;28;20113;-76
2022/11/04 07:11:09;;;;;;;;;;;;;;;7.01;50.66;94465.75;4927021;28;19991;-76
2022/11/04 07:13:35;;;;;;;;;;;;;;;7.00;51.81;94472.03;4948314;28;20333;-76
2022/11/04 07:16:02;;;;;;;;;;;;;;;6.78;53.03;94479.09;4943815;28;20001;-76
2022/11/04 07:18:28;;;;;;;;;;;;;;;6.89;52.03;94485.75;4924787;28;20007;-76
2022/11/04 07:20:53;;;;;;;;;;;;;;;6.99;52.87;94486.28;4941504;29;19979;-76
2022/11/04 07:23:18;;;;;;;;;;;;;;;7.09;51.75;94490.47;4953353;28;20008;-76
2022/11/04 07:25:43;;;;;;;;;;;;;;;7.18;52.45;94497.31;4945106;28;20017;-76
2022/11/04 07:28:09;;;;;;;;;;;;;;;7.20;53.00;94503.25;4943342;28;20002;-67
2022/11/04 07:30:34;;;;;;;;;;;;;;;6.67;52.59;94505.97;4943625;28;19987;-77
2022/11/04 07:32:59;;;;;;;;;;;;;;;7.00;52.72;94514.38;4930296;29;19975;-76
2022/11/04 07:35:24;;;;;;;;;;;;;;;6.54;52.75;94511.88;4945338;28;19994;-77
2022/11/04 07:37:50;;;;;;;;;;;;;;;6.68;54.42;94513.75;4945115;29;20471;-77
2022/11/04 07:40:15;;;;;;;;;;;;;;;7.04;54.06;94519.31;4945318;28;19986;-77
2022/11/04 07:42:40;;;;;;;;;;;;;;;7.18;52.96;94515.84;4945623;28;19991;-77
2022/11/04 07:45:06;;;;;;;;;;;;;;;7.31;53.28;94514.38;4934514;28;20030;-77
2022/11/04 07:47:31;;;;;;;;;;;;;;;7.44;52.83;94525.13;4934640;29;20018;-76
2022/11/04 07:49:56;;;;;;;;;;;;;;;7.56;54.00;94529.94;4938731;28;19975;-76
2022/11/04 07:52:21;;;;;;;;;;;;;;;7.46;50.02;94535.53;4944811;29;19982;-76
2022/11/04 07:54:47;;;;;;;;;;;;;;;7.64;51.07;94535.13;4944153;28;20255;-76
2022/11/04 07:57:12;;;;;;;;;;;;;;;7.88;51.51;94543.78;4944509;29;20002;-76
2022/11/04 07:59:37;;;;;;;;;;;;;;;7.90;50.68;94541.78;4944054;28;19987;-76
2022/11/04 08:02:02;;;;;;;;;;;;;;;8.09;53.34;94545.63;4944775;28;20009;-77
2022/11/04 08:04:28;;;;;;;;;;;;;;;8.36;52.75;94532.63;4931981;28;19959;-77
2022/11/04 08:06:53;;;;;;;;;;;;;;;8.52;52.08;94520.94;4944875;28;20001;-77
2022/11/04 08:09:18;;;;;;;;;;;;;;;8.79;50.53;94518.50;4944950;29;20003;-77
2022/11/04 08:11:43;;;;;;;;;;;;;;;8.93;49.02;94521.22;4934698;28;19998;-77
2022/11/04 08:14:09;;;;;;;;;;;;;;;8.63;46.93;94516.09;4951632;28;19971;-77
2022/11/04 08:16:34;;;;;;;;;;;;;;;8.29;48.88;94516.66;4945028;28;20085;-77
2022/11/04 08:19:01;;;;;;;;;;;;;;;7.60;48.78;94523.28;4932922;28;20026;-77
2022/11/04 08:21:26;;;;;;;;;;;;;;;7.21;53.27;94520.75;4944488;29;20030;-77
2022/11/04 08:23:51;;;;;;;;;;;;;;;7.94;51.18;94521.00;4933982;28;20014;-77
2022/11/04 08:26:17;;;;;;;;;;;;;;;7.98;50.68;94517.81;4946207;28;20486;-76
2022/11/04 08:28:42;;;;;;;;;;;;;;;8.48;50.73;94519.69;4937179;29;19971;-77
2022/11/04 08:31:12;;;;;;;;;;;;;;;8.71;51.47;94529.25;4943999;28;19999;-77
2022/11/04 08:33:38;;;;;;;;;;;;;;;8.68;49.39;94529.63;4929753;28;19967;-68
2022/11/04 08:36:04;;;;;;;;;;;;;;;8.83;48.93;94526.88;4943531;28;19991;-68
2022/11/04 08:38:30;;;;;;;;;;;;;;;8.66;48.69;94518.38;4943816;28;20006;-69
2022/11/04 08:40:56;;;;;;;;;;;;;;;8.76;47.68;94510.91;4943635;28;20055;-69
2022/11/04 08:43:21;;;;;;;;;;;;;;;8.49;48.57;94516.00;4943388;28;20002;-69
2022/11/04 08:45:46;;;;;;;;;;;;;;;8.74;47.78;94512.91;4942852;28;19975;-69
2022/11/04 08:48:12;;;;;;;;;;;;;;;8.86;48.13;94509.72;4943690;28;19995;-69
2022/11/04 08:50:37;;;;;;;;;;;;;;;9.19;49.88;94504.63;4945940;28;20085;-69
2022/11/04 08:53:03;;;;;;;;;;;;;;;9.51;46.98;94511.31;4940054;28;20006;-69
2022/11/04 08:55:28;;;;;;;;;;;;;;;9.77;48.12;94510.63;4944065;28;20410;-69
2022/11/04 08:57:53;;;;;;;;;;;;;;;8.81;48.61;94508.47;4934221;28;20037;-69
2022/11/04 09:00:19;;;;;;;;;;;;;;;9.45;47.15;94507.63;4927205;29;20029;-69
2022/11/04 09:02:45;;;;;;;;;;;;;;;9.18;45.33;94505.66;4941006;28;20444;-69
2022/11/04 09:05:10;;;;;;;;;;;;;;;9.27;47.27;94503.66;4960608;28;19974;-69
2022/11/04 09:07:36;;;;;;;;;;;;;;;9.20;45.98;94508.13;4940412;28;19994;-69
2022/11/04 09:10:01;;;;;;;;;;;;;;;8.91;48.10;94518.75;4943474;28;20452;-69
2022/11/04 09:12:27;;;;;;;;;;;;;;;9.46;46.41;94514.59;4929542;29;20053;-69
2022/11/04 09:14:52;;;;;;;;;;;;;;;9.85;46.67;94518.41;4941256;28;20384;-69
2022/11/04 09:17:17;;;;;;;;;;;;;;;10.10;46.15;94517.06;4934571;29;20363;-69
2022/11/04 09:19:42;;;;;;;;;;;;;;;9.95;47.15;94522.50;4943508;28;20290;-69
2022/11/04 09:22:08;;;;;;;;;;;;;;;9.09;46.35;94520.13;4950056;28;20007;-69
2022/11/04 09:24:33;;;;;;;;;;;;;;;9.98;46.50;94520.28;4942903;29;19974;-69
2022/11/04 09:26:58;;;;;;;;;;;;;;;9.90;43.75;94519.63;4941326;28;19991;-69
2022/11/04 09:29:23;;;;;;;;;;;;;;;10.09;45.42;94524.22;4943457;28;20303;-69
2022/11/04 09:31:49;;;;;;;;;;;;;;;10.14;47.61;94515.63;4940773;28;20043;-69
2022/11/04 09:34:14;;;;;;;;;;;;;;;7.31;51.37;94522.31;4941411;28;20250;-69
2022/11/04 09:36:39;;;;;;;;;;;;;;;9.10;50.13;94511.13;4931949;29;19971;-69
2022/11/04 09:39:05;;;;;;;;;;;;;;;9.19;47.94;94517.13;4942527;28;19995;-69
2022/11/04 09:41:37;;;;;;;;;;;;;;;9.50;48.23;94521.16;4941995;28;20401;-69
2022/11/04 09:44:02;;;;;;;;;;;;;;;9.65;48.76;94514.88;4927602;29;20034;-69
2022/11/04 09:46:27;;;;;;;;;;;;;;;9.95;48.25;94525.16;4941140;28;20033;-69
2022/11/04 09:48:53;;;;;;;;;;;;;;;10.15;45.31;94529.72;4932832;28;19999;-69
2022/11/04 09:51:19;;;;;;;;;;;;;;;10.15;44.75;94532.41;4932259;28;19995;-70
2022/11/04 09:53:44;;;;;;;;;;;;;;;10.46;45.46;94528.34;4950918;28;20422;-69
2022/11/04 09:56:15;;;;;;;;;;;;;;;10.27;43.11;94525.44;4943463;28;20056;-70
2022/11/04 09:58:40;;;;;;;;;;;;;;;10.05;46.21;94522.97;4941124;28;20003;-69
2022/11/04 10:01:10;;;;;;;;;;;;;;;10.55;42.82;94521.81;4943013;29;19974;-70
2022/11/04 10:03:45;;;;;;;;;;;;;;;9.79;45.66;94527.16;4946848;28;20374;-70
2022/11/04 10:06:13;;;;;;;;;;;;;;;9.33;44.81;94536.59;4941659;28;20355;-70
2022/11/04 10:08:38;;;;;;;;;;;;;;;9.90;46.97;94535.59;4931541;29;20049;-69
2022/11/04 10:11:36;;;;;;;;;;;;;;;9.80;46.03;94535.97;4940404;28;19994;-70
2022/11/04 10:14:20;;;;;;;;;;;;;;;10.53;45.85;94545.13;4886933;28;19989;-70
2022/11/04 10:16:56;;;;;;;;;;;;;;;10.53;45.79;94541.63;4942206;28;20006;-69
2022/11/04 10:19:24;;;;;;;;;;;;;;;10.65;45.07;94544.53;4949658;28;20598;-70
2022/11/04 10:22:03;;;;;;;;;;;;;;;10.65;43.68;94542.69;4941725;28;19967;-70
2022/11/04 10:24:42;;;;;;;;;;;;;;;10.77;44.92;94542.06;4939225;28;19992;-69
2022/11/04 10:27:13;;;;;;;;;;;;;;;10.77;44.80;94544.75;4938281;28;20441;-69
2022/11/04 10:29:49;;;;;;;;;;;;;;;10.39;45.75;94546.13;4942743;29;20472;-68
2022/11/04 10:32:34;;;;;;;;;;;;;;;10.73;44.47;94544.31;4941112;28;19994;-69
2022/11/04 10:35:01;;;;;;;;;;;;;;;10.94;43.73;94551.25;4904595;28;19995;-69
2022/11/04 10:37:26;;;;;;;;;;;;;;;10.87;44.24;94556.59;4928269;28;20200;-69
2022/11/04 10:39:52;;;;;;;;;;;;;;;10.97;44.21;94556.19;4944157;28;20415;-69
2022/11/04 10:42:19;;;;;;;;;;;;;;;11.17;43.40;94566.03;4931061;29;20435;-69
2022/11/04 10:44:45;;;;;;;;;;;;;;;11.46;43.00;94557.75;4942706;28;19970;-69
2022/11/04 10:47:17;;;;;;;;;;;;;;;11.69;42.46;94564.47;4941258;28;19996;-69
2022/11/04 10:50:01;;;;;;;;;;;;;;;11.83;41.91;94558.03;4929770;29;19985;-69
2022/11/04 10:52:27;;;;;;;;;;;;;;;12.11;41.97;94561.41;4961170;28;20077;-69
2022/11/04 10:54:52;;;;;;;;;;;;;;;11.83;39.41;94563.34;4941368;28;20089;-69
2022/11/04 10:57:21;;;;;;;;;;;;;;;11.81;41.69;94557.44;4942159;28;19995;-69
2022/11/04 10:59:50;;;;;;;;;;;;;;;11.97;41.56;94558.78;4931781;28;19998;-69
2022/11/04 11:02:15;;;;;;;;;;;;;;;12.34;40.50;94557.38;4946370;28;20390;-70
2022/11/04 11:04:40;;;;;;;;;;;;;;;12.50;40.42;94558.69;4945030;28;19978;-70
2022/11/04 11:07:07;;;;;;;;;;;;;;;12.52;40.44;94562.78;4944487;28;20478;-70
2022/11/04 11:09:33;;;;;;;;;;;;;;;12.68;39.99;94568.63;4944253;28;20606;-70
2022/11/04 11:12:02;;;;;;;;;;;;;;;12.57;37.65;94572.03;4930874;28;20025;-70
2022/11/04 11:14:27;;;;;;;;;;;;;;;12.44;40.13;94575.59;4931669;28;20233;-70
2022/11/04 11:16:53;;;;;;;;;;;;;;;12.65;39.79;94577.91;4943444;28;20350;-70
2022/11/04 11:19:19;;;;;;;;;;;;;;;12.86;39.48;94570.56;4932820;28;20049;-70
2022/11/04 11:21:48;;;;;;;;;;;;;;;13.25;38.64;94567.78;4936229;28;20065;-70
2022/11/04 11:24:15;;;;;;;;;;;;;;;13.33;38.43;94565.84;4944579;28;19992;-70
2022/11/04 11:26:46;;;;;;;;;;;;;;;13.92;37.44;94563.59;4944174;28;19987;-70
2022/11/04 11:29:12;;;;;;;;;;;;;;;14.06;36.79;94564.22;4944990;28;19982;-70
2022/11/04 11:31:37;;;;;;;;;;;;;;;14.10;35.89;94558.44;4947584;28;19986;-69
2022/11/04 11:34:04;;;;;;;;;;;;;;;14.65;34.29;94553.94;4942775;28;19975;-69
2022/11/04 11:36:30;;;;;;;;;;;;;;;13.10;35.84;94553.94;4933215;29;19967;-69
2022/11/04 11:38:55;;;;;;;;;;;;;;;12.96;36.17;94553.22;4943429;28;20025;-69
2022/11/04 11:41:22;;;;;;;;;;;;;;;13.82;35.35;94555.22;4944408;29;19971;-69
2022/11/04 11:43:49;;;;;;;;;;;;;;;13.99;36.40;94549.28;4937878;28;19989;-69
2022/11/04 11:46:19;;;;;;;;;;;;;;;12.85;37.13;94544.88;4909397;28;20070;-69
2022/11/04 11:48:49;;;;;;;;;;;;;;;13.21;37.58;94549.72;4936272;29;20099;-69
2022/11/04 11:51:16;;;;;;;;;;;;;;;13.45;36.60;94550.72;4936407;28;20188;-69
2022/11/04 11:53:55;;;;;;;;;;;;;;;12.82;38.07;94549.84;4928406;29;19966;-69
2022/11/04 11:56:25;;;;;;;;;;;;;;;10.93;42.62;94554.13;4944944;28;19991;-69
2022/11/04 11:58:52;;;;;;;;;;;;;;;12.32;40.14;94552.25;4944729;28;20439;-69
2022/11/04 12:01:20;;;;;;;;;;;;;;;12.77;38.75;94556.66;4929921;29;19973;-69
2022/11/04 12:03:46;;;;;;;;;;;;;;;12.59;37.34;94560.09;4942715;28;20034;-69
2022/11/04 12:06:20;;;;;;;;;;;;;;;12.03;38.33;94562.44;4964072;28;19978;-69
2022/11/04 12:08:50;;;;;;;;;;;;;;;12.62;37.68;94566.84;4943352;28;19990;-69
2022/11/04 12:11:18;;;;;;;;;;;;;;;12.59;36.76;94568.09;4942116;28;20005;-69
2022/11/04 12:13:47;;;;;;;;;;;;;;;12.39;39.38;94569.06;4946817;28;19974;-69
2022/11/04 12:16:32;;;;;;;;;;;;;;;11.86;38.81;94570.09;4929879;28;20042;-69
2022/11/04 12:19:16;;;;;;;;;;;;;;;10.31;42.19;94560.47;4941955;28;20030;-78
2022/11/04 12:21:53;;;;;;;;;;;;;;;10.34;43.10;94563.53;4962079;28;19983;-79
2022/11/04 12:24:26;;;;;;;;;;;;;;;10.62;42.68;94559.06;4944574;29;20017;-78
2022/11/04 12:27:00;;;;;;;;;;;;;;;10.92;41.37;94561.31;4927449;28;19999;-65
2022/11/04 12:29:45;;;;;;;;;;;;;;;11.07;42.08;94558.41;4944368;28;20083;-65
2022/11/04 12:32:10;;;;;;;;;;;;;;;10.35;41.42;94562.53;4930500;28;20384;-64
2022/11/04 12:34:44;;;;;;;;;;;;;;;9.75;42.90;94565.78;4944676;28;20003;-64
2022/11/04 12:37:21;;;;;;;;;;;;;;;10.30;44.19;94566.81;4941609;28;19998;-65
2022/11/04 12:39:48;;;;;;;;;;;;;;;10.41;43.25;94576.03;4944312;28;20330;-65
2022/11/04 12:42:14;;;;;;;;;;;;;;;10.25;44.66;94577.22;4929876;28;20236;-78
2022/11/04 12:44:42;;;;;;;;;;;;;;;10.72;43.47;94577.28;4944354;28;20339;-78
2022/11/04 12:47:27;;;;;;;;;;;;;;;11.16;41.84;94576.88;4925624;29;20053;-78
2022/11/04 12:50:12;;;;;;;;;;;;;;;11.58;41.18;94585.41;4932359;29;20438;-77
2022/11/04 12:52:40;;;;;;;;;;;;;;;11.85;40.34;94574.63;4949615;28;20456;-78
2022/11/04 12:55:19;;;;;;;;;;;;;;;11.82;40.43;94572.38;4944144;28;19994;-78
2022/11/04 12:57:44;;;;;;;;;;;;;;;11.21;40.55;94571.75;4960621;28;20001;-78
2022/11/04 13:00:19;;;;;;;;;;;;;;;11.58;40.71;94572.06;4949558;28;20439;-77
2022/11/04 13:02:47;;;;;;;;;;;;;;;12.04;39.64;94574.78;4933578;28;19993;-78
2022/11/04 13:05:22;;;;;;;;;;;;;;;12.41;39.37;94568.84;4932313;29;19971;-77
2022/11/04 13:08:02;;;;;;;;;;;;;;;12.54;39.11;94573.25;4943161;28;20001;-78
2022/11/04 13:10:35;;;;;;;;;;;;;;;12.76;39.18;94573.72;4933654;28;19998;-78
2022/11/04 13:13:00;;;;;;;;;;;;;;;12.77;38.29;94571.84;4928220;29;19974;-78
2022/11/04 13:15:27;;;;;;;;;;;;;;;13.09;38.56;94573.69;4931464;28;20371;-78
2022/11/04 13:17:54;;;;;;;;;;;;;;;13.54;37.65;94575.31;4925335;29;20423;-78
2022/11/04 13:20:23;;;;;;;;;;;;;;;13.66;36.24;94583.38;4930614;28;19990;-77
2022/11/04 13:22:49;;;;;;;;;;;;;;;13.43;36.05;94583.00;4929897;28;20002;-78
2022/11/04 13:25:16;;;;;;;;;;;;;;;13.20;37.24;94590.84;4943126;28;19966;-78
2022/11/04 13:27:46;;;;;;;;;;;;;;;12.99;37.23;94583.00;4964159;28;19995;-78
2022/11/04 13:30:21;;;;;;;;;;;;;;;13.09;37.13;94590.53;4936991;28;20062;-78